sensor_id;sensor_type;location;lat;lon;timestamp;P1;durP1;ratioP1;P2;durP2;ratioP2
11827;SDS011;5971;49.646;8.568;2023-08-21T00:00:30;7.93;;;5.68;;
11827;SDS011;5971;49.646;8.568;2023-08-21T00:03:32;9.57;;;5.72;;
11827;SDS011;5971;49.646;8.568;2023-08-21T00:06:33;9.55;;;5.45;;
11827;SDS011;5971;49.646;8.568;2023-08-21T00:09:34;12.40;;;5.82;;
11827;SDS011;5971;49.646;8.568;2023-08-21T00:12:36;10.73;;;6.47;;
11827;SDS011;5971;49.646;8.568;2023-08-21T00:15:38;8.57;;;5.60;;
11827;SDS011;5971;49.646;8.568;2023-08-21T00:18:40;7.90;;;5.28;;
11827;SDS011;5971;49.646;8.568;2023-08-21T00:21:41;9.68;;;6.28;;
11827;SDS011;5971;49.646;8.568;2023-08-21T00:24:43;9.98;;;5.53;;
11827;SDS011;5971;49.646;8.568;2023-08-21T00:27:44;7.55;;;5.63;;
11827;SDS011;5971;49.646;8.568;2023-08-21T00:30:46;8.10;;;5.70;;
11827;SDS011;5971;49.646;8.568;2023-08-21T00:33:47;8.52;;;5.40;;
11827;SDS011;5971;49.646;8.568;2023-08-21T00:36:48;8.52;;;5.57;;
11827;SDS011;5971;49.646;8.568;2023-08-21T00:39:50;9.20;;;5.35;;
11827;SDS011;5971;49.646;8.568;2023-08-21T00:42:52;9.20;;;5.38;;
11827;SDS011;5971;49.646;8.568;2023-08-21T00:45:53;11.70;;;5.13;;
11827;SDS011;5971;49.646;8.568;2023-08-21T00:48:54;7.88;;;4.95;;
11827;SDS011;5971;49.646;8.568;2023-08-21T00:51:56;7.80;;;4.88;;
11827;SDS011;5971;49.646;8.568;2023-08-21T00:54:57;9.07;;;5.38;;
11827;SDS011;5971;49.646;8.568;2023-08-21T00:57:59;7.57;;;4.97;;
11827;SDS011;5971;49.646;8.568;2023-08-21T01:01:01;9.63;;;5.13;;
11827;SDS011;5971;49.646;8.568;2023-08-21T01:04:03;7.97;;;5.43;;
11827;SDS011;5971;49.646;8.568;2023-08-21T01:07:05;8.95;;;5.40;;
11827;SDS011;5971;49.646;8.568;2023-08-21T01:10:16;8.90;;;5.70;;
11827;SDS011;5971;49.646;8.568;2023-08-21T01:16:40;7.38;;;5.00;;
11827;SDS011;5971;49.646;8.568;2023-08-21T01:19:43;10.02;;;6.13;;
11827;SDS011;5971;49.646;8.568;2023-08-21T01:22:44;8.40;;;4.65;;
11827;SDS011;5971;49.646;8.568;2023-08-21T01:25:47;9.63;;;5.20;;
11827;SDS011;5971;49.646;8.568;2023-08-21T01:28:48;8.73;;;6.10;;
11827;SDS011;5971;49.646;8.568;2023-08-21T01:31:56;8.13;;;5.10;;
11827;SDS011;5971;49.646;8.568;2023-08-21T01:34:59;11.65;;;5.53;;
11827;SDS011;5971;49.646;8.568;2023-08-21T01:38:01;9.18;;;5.65;;
11827;SDS011;5971;49.646;8.568;2023-08-21T01:41:03;8.90;;;5.78;;
11827;SDS011;5971;49.646;8.568;2023-08-21T01:44:04;8.20;;;5.90;;
11827;SDS011;5971;49.646;8.568;2023-08-21T01:47:05;10.98;;;5.78;;
11827;SDS011;5971;49.646;8.568;2023-08-21T01:50:07;8.77;;;6.57;;
11827;SDS011;5971;49.646;8.568;2023-08-21T01:53:09;8.10;;;5.47;;
11827;SDS011;5971;49.646;8.568;2023-08-21T01:56:10;9.23;;;6.63;;
11827;SDS011;5971;49.646;8.568;2023-08-21T01:59:11;9.32;;;6.57;;
11827;SDS011;5971;49.646;8.568;2023-08-21T02:02:13;9.13;;;6.35;;
11827;SDS011;5971;49.646;8.568;2023-08-21T02:05:14;9.63;;;5.78;;
11827;SDS011;5971;49.646;8.568;2023-08-21T02:08:16;8.00;;;5.55;;
11827;SDS011;5971;49.646;8.568;2023-08-21T02:11:18;10.00;;;6.30;;
11827;SDS011;5971;49.646;8.568;2023-08-21T02:14:19;8.15;;;5.28;;
11827;SDS011;5971;49.646;8.568;2023-08-21T02:17:20;8.88;;;5.88;;
11827;SDS011;5971;49.646;8.568;2023-08-21T02:20:22;9.82;;;6.10;;
11827;SDS011;5971;49.646;8.568;2023-08-21T02:23:23;8.85;;;5.75;;
11827;SDS011;5971;49.646;8.568;2023-08-21T02:26:25;10.75;;;6.40;;
11827;SDS011;5971;49.646;8.568;2023-08-21T02:29:26;9.45;;;5.35;;
11827;SDS011;5971;49.646;8.568;2023-08-21T02:32:28;7.93;;;5.60;;
11827;SDS011;5971;49.646;8.568;2023-08-21T02:35:30;8.93;;;5.93;;
11827;SDS011;5971;49.646;8.568;2023-08-21T02:38:31;8.15;;;5.57;;
11827;SDS011;5971;49.646;8.568;2023-08-21T02:41:32;8.65;;;5.57;;
11827;SDS011;5971;49.646;8.568;2023-08-21T02:44:34;8.98;;;5.88;;
11827;SDS011;5971;49.646;8.568;2023-08-21T02:47:36;8.38;;;5.40;;
11827;SDS011;5971;49.646;8.568;2023-08-21T02:50:37;10.52;;;5.78;;
11827;SDS011;5971;49.646;8.568;2023-08-21T02:53:39;10.88;;;6.22;;
11827;SDS011;5971;49.646;8.568;2023-08-21T02:56:40;10.02;;;6.90;;
11827;SDS011;5971;49.646;8.568;2023-08-21T02:59:41;10.32;;;7.25;;
11827;SDS011;5971;49.646;8.568;2023-08-21T03:02:43;10.60;;;7.57;;
11827;SDS011;5971;49.646;8.568;2023-08-21T03:05:45;10.10;;;6.03;;
11827;SDS011;5971;49.646;8.568;2023-08-21T03:08:46;8.95;;;6.97;;
11827;SDS011;5971;49.646;8.568;2023-08-21T03:11:48;8.73;;;6.45;;
11827;SDS011;5971;49.646;8.568;2023-08-21T03:14:49;11.82;;;6.28;;
11827;SDS011;5971;49.646;8.568;2023-08-21T03:17:50;8.77;;;6.20;;
11827;SDS011;5971;49.646;8.568;2023-08-21T03:20:52;12.40;;;6.57;;
11827;SDS011;5971;49.646;8.568;2023-08-21T03:23:57;11.13;;;6.60;;
11827;SDS011;5971;49.646;8.568;2023-08-21T03:27:01;9.40;;;6.55;;
11827;SDS011;5971;49.646;8.568;2023-08-21T03:30:02;10.55;;;6.50;;
11827;SDS011;5971;49.646;8.568;2023-08-21T03:33:04;10.02;;;6.35;;
11827;SDS011;5971;49.646;8.568;2023-08-21T03:36:05;9.70;;;6.57;;
11827;SDS011;5971;49.646;8.568;2023-08-21T03:39:07;12.23;;;7.70;;
11827;SDS011;5971;49.646;8.568;2023-08-21T03:42:08;9.57;;;6.30;;
11827;SDS011;5971;49.646;8.568;2023-08-21T03:45:10;10.02;;;7.22;;
11827;SDS011;5971;49.646;8.568;2023-08-21T03:48:11;10.35;;;6.57;;
11827;SDS011;5971;49.646;8.568;2023-08-21T03:51:14;11.70;;;7.00;;
11827;SDS011;5971;49.646;8.568;2023-08-21T03:54:15;10.40;;;6.97;;
11827;SDS011;5971;49.646;8.568;2023-08-21T03:57:17;10.23;;;6.55;;
11827;SDS011;5971;49.646;8.568;2023-08-21T04:00:18;9.63;;;6.63;;
11827;SDS011;5971;49.646;8.568;2023-08-21T04:03:20;11.48;;;6.97;;
11827;SDS011;5971;49.646;8.568;2023-08-21T04:06:21;12.15;;;7.72;;
11827;SDS011;5971;49.646;8.568;2023-08-21T04:09:22;11.55;;;6.90;;
11827;SDS011;5971;49.646;8.568;2023-08-21T04:12:24;10.60;;;7.75;;
11827;SDS011;5971;49.646;8.568;2023-08-21T04:15:25;12.90;;;7.93;;
11827;SDS011;5971;49.646;8.568;2023-08-21T04:18:26;13.02;;;7.28;;
11827;SDS011;5971;49.646;8.568;2023-08-21T04:21:42;11.18;;;6.63;;
11827;SDS011;5971;49.646;8.568;2023-08-21T04:24:43;10.15;;;6.25;;
11827;SDS011;5971;49.646;8.568;2023-08-21T04:27:44;10.93;;;6.93;;
11827;SDS011;5971;49.646;8.568;2023-08-21T04:30:46;11.40;;;8.23;;
11827;SDS011;5971;49.646;8.568;2023-08-21T04:33:47;10.55;;;7.57;;
11827;SDS011;5971;49.646;8.568;2023-08-21T04:36:48;12.48;;;7.20;;
11827;SDS011;5971;49.646;8.568;2023-08-21T04:39:50;12.43;;;7.80;;
11827;SDS011;5971;49.646;8.568;2023-08-21T04:42:52;13.85;;;7.75;;
11827;SDS011;5971;49.646;8.568;2023-08-21T04:45:54;9.43;;;6.93;;
11827;SDS011;5971;49.646;8.568;2023-08-21T04:48:55;12.60;;;7.47;;
11827;SDS011;5971;49.646;8.568;2023-08-21T04:51:56;12.80;;;7.15;;
11827;SDS011;5971;49.646;8.568;2023-08-21T04:54:58;13.27;;;7.60;;
11827;SDS011;5971;49.646;8.568;2023-08-21T04:57:59;11.40;;;6.80;;
11827;SDS011;5971;49.646;8.568;2023-08-21T05:01:00;13.00;;;7.53;;
11827;SDS011;5971;49.646;8.568;2023-08-21T05:04:02;12.60;;;7.28;;
11827;SDS011;5971;49.646;8.568;2023-08-21T05:07:03;10.27;;;6.70;;
11827;SDS011;5971;49.646;8.568;2023-08-21T05:10:05;11.60;;;6.75;;
11827;SDS011;5971;49.646;8.568;2023-08-21T05:13:07;10.07;;;6.45;;
11827;SDS011;5971;49.646;8.568;2023-08-21T05:16:08;9.40;;;6.40;;
11827;SDS011;5971;49.646;8.568;2023-08-21T05:19:10;11.55;;;6.72;;
11827;SDS011;5971;49.646;8.568;2023-08-21T05:22:11;11.38;;;8.07;;
11827;SDS011;5971;49.646;8.568;2023-08-21T05:25:13;12.63;;;6.85;;
11827;SDS011;5971;49.646;8.568;2023-08-21T05:28:14;10.88;;;7.03;;
11827;SDS011;5971;49.646;8.568;2023-08-21T05:31:16;10.73;;;7.22;;
11827;SDS011;5971;49.646;8.568;2023-08-21T05:34:17;10.73;;;7.10;;
11827;SDS011;5971;49.646;8.568;2023-08-21T05:37:18;12.20;;;8.50;;
11827;SDS011;5971;49.646;8.568;2023-08-21T05:40:20;11.70;;;7.38;;
11827;SDS011;5971;49.646;8.568;2023-08-21T05:43:21;10.20;;;6.78;;
11827;SDS011;5971;49.646;8.568;2023-08-21T05:46:22;13.27;;;6.88;;
11827;SDS011;5971;49.646;8.568;2023-08-21T05:49:24;12.45;;;7.38;;
11827;SDS011;5971;49.646;8.568;2023-08-21T05:52:25;11.35;;;6.90;;
11827;SDS011;5971;49.646;8.568;2023-08-21T05:55:27;10.98;;;6.72;;
11827;SDS011;5971;49.646;8.568;2023-08-21T05:58:28;11.10;;;7.30;;
11827;SDS011;5971;49.646;8.568;2023-08-21T06:01:32;9.85;;;6.28;;
11827;SDS011;5971;49.646;8.568;2023-08-21T06:04:33;9.65;;;6.57;;
11827;SDS011;5971;49.646;8.568;2023-08-21T06:07:35;11.15;;;7.30;;
11827;SDS011;5971;49.646;8.568;2023-08-21T06:10:36;11.27;;;6.95;;
11827;SDS011;5971;49.646;8.568;2023-08-21T06:13:38;12.77;;;6.82;;
11827;SDS011;5971;49.646;8.568;2023-08-21T06:16:39;10.93;;;6.75;;
11827;SDS011;5971;49.646;8.568;2023-08-21T06:19:41;11.80;;;7.65;;
11827;SDS011;5971;49.646;8.568;2023-08-21T06:22:42;11.55;;;7.43;;
11827;SDS011;5971;49.646;8.568;2023-08-21T06:25:43;12.38;;;7.00;;
11827;SDS011;5971;49.646;8.568;2023-08-21T06:28:45;10.02;;;6.97;;
11827;SDS011;5971;49.646;8.568;2023-08-21T06:31:46;10.85;;;8.00;;
11827;SDS011;5971;49.646;8.568;2023-08-21T06:34:48;8.88;;;6.35;;
11827;SDS011;5971;49.646;8.568;2023-08-21T06:37:49;10.70;;;6.65;;
11827;SDS011;5971;49.646;8.568;2023-08-21T06:40:51;9.30;;;6.32;;
11827;SDS011;5971;49.646;8.568;2023-08-21T06:43:52;10.00;;;6.65;;
11827;SDS011;5971;49.646;8.568;2023-08-21T06:46:53;8.82;;;6.40;;
11827;SDS011;5971;49.646;8.568;2023-08-21T06:49:55;11.13;;;6.28;;
11827;SDS011;5971;49.646;8.568;2023-08-21T06:52:56;8.52;;;6.32;;
11827;SDS011;5971;49.646;8.568;2023-08-21T06:55:57;9.30;;;6.78;;
11827;SDS011;5971;49.646;8.568;2023-08-21T06:58:59;9.10;;;6.28;;
11827;SDS011;5971;49.646;8.568;2023-08-21T07:02:00;8.98;;;5.63;;
11827;SDS011;5971;49.646;8.568;2023-08-21T07:05:02;9.57;;;6.40;;
11827;SDS011;5971;49.646;8.568;2023-08-21T07:08:04;8.07;;;6.28;;
11827;SDS011;5971;49.646;8.568;2023-08-21T07:11:06;8.75;;;6.28;;
11827;SDS011;5971;49.646;8.568;2023-08-21T07:14:09;10.55;;;6.30;;
11827;SDS011;5971;49.646;8.568;2023-08-21T07:17:10;8.05;;;5.72;;
11827;SDS011;5971;49.646;8.568;2023-08-21T07:20:12;8.35;;;6.55;;
11827;SDS011;5971;49.646;8.568;2023-08-21T07:23:13;8.35;;;6.63;;
11827;SDS011;5971;49.646;8.568;2023-08-21T07:26:14;9.90;;;5.90;;
11827;SDS011;5971;49.646;8.568;2023-08-21T07:29:16;8.00;;;5.55;;
11827;SDS011;5971;49.646;8.568;2023-08-21T07:32:17;7.75;;;6.10;;
11827;SDS011;5971;49.646;8.568;2023-08-21T07:35:19;8.48;;;6.10;;
11827;SDS011;5971;49.646;8.568;2023-08-21T07:38:21;8.23;;;6.00;;
11827;SDS011;5971;49.646;8.568;2023-08-21T07:41:23;8.27;;;6.47;;
11827;SDS011;5971;49.646;8.568;2023-08-21T07:44:27;8.60;;;6.30;;
11827;SDS011;5971;49.646;8.568;2023-08-21T07:47:28;8.57;;;6.75;;
11827;SDS011;5971;49.646;8.568;2023-08-21T07:50:30;9.45;;;6.57;;
11827;SDS011;5971;49.646;8.568;2023-08-21T07:53:31;6.85;;;5.28;;
11827;SDS011;5971;49.646;8.568;2023-08-21T07:56:33;8.13;;;6.03;;
11827;SDS011;5971;49.646;8.568;2023-08-21T07:59:36;8.25;;;5.60;;
11827;SDS011;5971;49.646;8.568;2023-08-21T08:02:37;8.75;;;5.82;;
11827;SDS011;5971;49.646;8.568;2023-08-21T08:05:40;7.72;;;5.35;;
11827;SDS011;5971;49.646;8.568;2023-08-21T08:08:43;7.00;;;5.88;;
11827;SDS011;5971;49.646;8.568;2023-08-21T08:11:44;9.07;;;5.88;;
11827;SDS011;5971;49.646;8.568;2023-08-21T08:14:45;7.70;;;5.80;;
11827;SDS011;5971;49.646;8.568;2023-08-21T08:17:47;9.07;;;5.63;;
11827;SDS011;5971;49.646;8.568;2023-08-21T08:20:53;6.95;;;5.35;;
11827;SDS011;5971;49.646;8.568;2023-08-21T08:23:55;7.28;;;5.55;;
11827;SDS011;5971;49.646;8.568;2023-08-21T08:26:56;6.85;;;5.30;;
11827;SDS011;5971;49.646;8.568;2023-08-21T08:29:58;7.75;;;5.70;;
11827;SDS011;5971;49.646;8.568;2023-08-21T08:33:00;7.72;;;5.43;;
11827;SDS011;5971;49.646;8.568;2023-08-21T08:36:01;8.85;;;5.93;;
11827;SDS011;5971;49.646;8.568;2023-08-21T08:39:03;7.10;;;5.63;;
11827;SDS011;5971;49.646;8.568;2023-08-21T08:42:05;6.50;;;5.20;;
11827;SDS011;5971;49.646;8.568;2023-08-21T08:45:07;7.78;;;5.68;;
11827;SDS011;5971;49.646;8.568;2023-08-21T08:48:08;6.75;;;5.70;;
11827;SDS011;5971;49.646;8.568;2023-08-21T08:51:11;6.80;;;5.60;;
11827;SDS011;5971;49.646;8.568;2023-08-21T08:54:13;6.95;;;5.50;;
11827;SDS011;5971;49.646;8.568;2023-08-21T08:57:14;7.28;;;5.35;;
11827;SDS011;5971;49.646;8.568;2023-08-21T09:00:15;7.95;;;5.32;;
11827;SDS011;5971;49.646;8.568;2023-08-21T09:03:17;7.53;;;5.88;;
11827;SDS011;5971;49.646;8.568;2023-08-21T09:06:18;7.03;;;5.35;;
11827;SDS011;5971;49.646;8.568;2023-08-21T09:09:20;7.63;;;5.53;;
11827;SDS011;5971;49.646;8.568;2023-08-21T09:12:21;6.93;;;5.00;;
11827;SDS011;5971;49.646;8.568;2023-08-21T09:15:27;6.53;;;5.20;;
11827;SDS011;5971;49.646;8.568;2023-08-21T09:18:46;6.78;;;5.32;;
11827;SDS011;5971;49.646;8.568;2023-08-21T09:21:49;6.80;;;6.10;;
11827;SDS011;5971;49.646;8.568;2023-08-21T09:25:00;5.90;;;5.20;;
11827;SDS011;5971;49.646;8.568;2023-08-21T09:28:03;7.10;;;6.20;;
11827;SDS011;5971;49.646;8.568;2023-08-21T09:31:05;7.20;;;5.68;;
11827;SDS011;5971;49.646;8.568;2023-08-21T09:34:07;7.47;;;6.75;;
11827;SDS011;5971;49.646;8.568;2023-08-21T09:37:08;7.68;;;6.43;;
11827;SDS011;5971;49.646;8.568;2023-08-21T09:40:11;7.05;;;5.68;;
11827;SDS011;5971;49.646;8.568;2023-08-21T09:43:12;6.72;;;5.70;;
11827;SDS011;5971;49.646;8.568;2023-08-21T09:46:14;7.80;;;6.07;;
11827;SDS011;5971;49.646;8.568;2023-08-21T09:49:15;6.20;;;5.60;;
11827;SDS011;5971;49.646;8.568;2023-08-21T09:52:18;6.13;;;5.05;;
11827;SDS011;5971;49.646;8.568;2023-08-21T09:55:19;6.28;;;5.00;;
11827;SDS011;5971;49.646;8.568;2023-08-21T09:58:21;5.93;;;4.45;;
11827;SDS011;5971;49.646;8.568;2023-08-21T10:01:23;5.80;;;4.28;;
11827;SDS011;5971;49.646;8.568;2023-08-21T10:07:27;6.45;;;4.68;;
11827;SDS011;5971;49.646;8.568;2023-08-21T10:10:34;6.65;;;4.88;;
11827;SDS011;5971;49.646;8.568;2023-08-21T10:13:38;5.63;;;4.68;;
11827;SDS011;5971;49.646;8.568;2023-08-21T10:16:41;4.95;;;4.22;;
11827;SDS011;5971;49.646;8.568;2023-08-21T10:19:46;5.65;;;4.20;;
11827;SDS011;5971;49.646;8.568;2023-08-21T10:22:55;6.20;;;4.93;;
11827;SDS011;5971;49.646;8.568;2023-08-21T10:25:57;6.30;;;4.47;;
11827;SDS011;5971;49.646;8.568;2023-08-21T10:29:02;5.45;;;4.07;;
11827;SDS011;5971;49.646;8.568;2023-08-21T10:32:04;5.60;;;4.18;;
11827;SDS011;5971;49.646;8.568;2023-08-21T10:35:06;5.20;;;4.70;;
11827;SDS011;5971;49.646;8.568;2023-08-21T10:38:17;5.38;;;4.22;;
11827;SDS011;5971;49.646;8.568;2023-08-21T10:41:19;5.88;;;4.82;;
11827;SDS011;5971;49.646;8.568;2023-08-21T10:45:02;5.25;;;4.70;;
11827;SDS011;5971;49.646;8.568;2023-08-21T10:48:00;6.32;;;5.07;;
11827;SDS011;5971;49.646;8.568;2023-08-21T10:51:02;5.50;;;4.20;;
11827;SDS011;5971;49.646;8.568;2023-08-21T10:54:10;6.03;;;4.70;;
11827;SDS011;5971;49.646;8.568;2023-08-21T10:57:11;4.60;;;3.60;;
11827;SDS011;5971;49.646;8.568;2023-08-21T11:00:14;5.00;;;4.10;;
11827;SDS011;5971;49.646;8.568;2023-08-21T11:03:15;5.22;;;4.45;;
11827;SDS011;5971;49.646;8.568;2023-08-21T11:06:18;5.97;;;4.47;;
11827;SDS011;5971;49.646;8.568;2023-08-21T11:09:19;5.40;;;4.15;;
11827;SDS011;5971;49.646;8.568;2023-08-21T11:12:22;5.00;;;3.50;;
11827;SDS011;5971;49.646;8.568;2023-08-21T11:15:24;4.63;;;3.80;;
11827;SDS011;5971;49.646;8.568;2023-08-21T11:18:30;5.60;;;3.83;;
11827;SDS011;5971;49.646;8.568;2023-08-21T11:21:32;4.40;;;3.33;;
11827;SDS011;5971;49.646;8.568;2023-08-21T11:27:38;5.13;;;3.88;;
11827;SDS011;5971;49.646;8.568;2023-08-21T11:30:42;4.93;;;4.15;;
11827;SDS011;5971;49.646;8.568;2023-08-21T11:33:49;4.10;;;3.38;;
11827;SDS011;5971;49.646;8.568;2023-08-21T11:36:51;4.63;;;3.50;;
11827;SDS011;5971;49.646;8.568;2023-08-21T11:39:56;2.90;;;2.60;;
11827;SDS011;5971;49.646;8.568;2023-08-21T11:43:01;3.55;;;2.60;;
11827;SDS011;5971;49.646;8.568;2023-08-21T11:46:03;3.63;;;2.47;;
11827;SDS011;5971;49.646;8.568;2023-08-21T11:49:04;4.20;;;2.92;;
11827;SDS011;5971;49.646;8.568;2023-08-21T11:52:06;4.45;;;3.30;;
11827;SDS011;5971;49.646;8.568;2023-08-21T11:55:10;3.97;;;3.33;;
11827;SDS011;5971;49.646;8.568;2023-08-21T11:58:16;4.93;;;2.90;;
11827;SDS011;5971;49.646;8.568;2023-08-21T12:01:19;3.55;;;2.60;;
11827;SDS011;5971;49.646;8.568;2023-08-21T12:04:21;4.15;;;3.10;;
11827;SDS011;5971;49.646;8.568;2023-08-21T12:07:22;3.47;;;3.03;;
11827;SDS011;5971;49.646;8.568;2023-08-21T12:10:27;3.90;;;2.95;;
11827;SDS011;5971;49.646;8.568;2023-08-21T12:13:29;3.85;;;3.00;;
11827;SDS011;5971;49.646;8.568;2023-08-21T12:16:34;4.07;;;3.28;;
11827;SDS011;5971;49.646;8.568;2023-08-21T12:19:35;3.60;;;3.00;;
11827;SDS011;5971;49.646;8.568;2023-08-21T12:25:39;4.57;;;3.53;;
11827;SDS011;5971;49.646;8.568;2023-08-21T12:28:41;5.07;;;3.33;;
11827;SDS011;5971;49.646;8.568;2023-08-21T12:31:42;4.20;;;3.50;;
11827;SDS011;5971;49.646;8.568;2023-08-21T12:34:44;3.83;;;2.53;;
11827;SDS011;5971;49.646;8.568;2023-08-21T12:37:48;3.45;;;2.58;;
11827;SDS011;5971;49.646;8.568;2023-08-21T12:40:49;4.82;;;3.30;;
11827;SDS011;5971;49.646;8.568;2023-08-21T12:43:51;3.92;;;2.90;;
11827;SDS011;5971;49.646;8.568;2023-08-21T12:46:52;4.43;;;3.05;;
11827;SDS011;5971;49.646;8.568;2023-08-21T12:49:54;4.20;;;3.65;;
11827;SDS011;5971;49.646;8.568;2023-08-21T12:52:55;3.65;;;3.08;;
11827;SDS011;5971;49.646;8.568;2023-08-21T12:55:56;3.20;;;2.42;;
11827;SDS011;5971;49.646;8.568;2023-08-21T12:58:58;3.88;;;2.97;;
11827;SDS011;5971;49.646;8.568;2023-08-21T13:05:02;4.18;;;3.08;;
11827;SDS011;5971;49.646;8.568;2023-08-21T13:08:04;3.92;;;2.88;;
11827;SDS011;5971;49.646;8.568;2023-08-21T13:11:06;3.50;;;2.97;;
11827;SDS011;5971;49.646;8.568;2023-08-21T13:14:08;4.18;;;2.83;;
11827;SDS011;5971;49.646;8.568;2023-08-21T13:17:09;3.22;;;2.60;;
11827;SDS011;5971;49.646;8.568;2023-08-21T13:20:12;3.13;;;2.50;;
11827;SDS011;5971;49.646;8.568;2023-08-21T13:23:13;3.85;;;2.50;;
11827;SDS011;5971;49.646;8.568;2023-08-21T13:26:15;3.15;;;2.65;;
11827;SDS011;5971;49.646;8.568;2023-08-21T13:29:16;3.38;;;2.45;;
11827;SDS011;5971;49.646;8.568;2023-08-21T13:32:17;3.25;;;2.55;;
11827;SDS011;5971;49.646;8.568;2023-08-21T13:35:19;2.80;;;1.88;;
11827;SDS011;5971;49.646;8.568;2023-08-21T13:38:22;3.80;;;2.67;;
11827;SDS011;5971;49.646;8.568;2023-08-21T13:41:23;3.78;;;2.33;;
11827;SDS011;5971;49.646;8.568;2023-08-21T13:44:24;2.92;;;2.47;;
11827;SDS011;5971;49.646;8.568;2023-08-21T13:47:26;3.13;;;1.70;;
11827;SDS011;5971;49.646;8.568;2023-08-21T13:50:27;3.33;;;2.20;;
11827;SDS011;5971;49.646;8.568;2023-08-21T13:53:29;3.42;;;2.50;;
11827;SDS011;5971;49.646;8.568;2023-08-21T13:56:31;2.70;;;2.40;;
11827;SDS011;5971;49.646;8.568;2023-08-21T13:59:32;3.65;;;2.42;;
11827;SDS011;5971;49.646;8.568;2023-08-21T14:02:34;2.50;;;2.17;;
11827;SDS011;5971;49.646;8.568;2023-08-21T14:05:35;3.50;;;2.65;;
11827;SDS011;5971;49.646;8.568;2023-08-21T14:08:37;3.33;;;2.50;;
11827;SDS011;5971;49.646;8.568;2023-08-21T14:11:39;3.53;;;2.47;;
11827;SDS011;5971;49.646;8.568;2023-08-21T14:14:40;4.15;;;2.35;;
11827;SDS011;5971;49.646;8.568;2023-08-21T14:17:41;3.25;;;1.80;;
11827;SDS011;5971;49.646;8.568;2023-08-21T14:20:43;3.47;;;2.55;;
11827;SDS011;5971;49.646;8.568;2023-08-21T14:23:44;3.47;;;2.22;;
11827;SDS011;5971;49.646;8.568;2023-08-21T14:26:46;3.53;;;2.47;;
11827;SDS011;5971;49.646;8.568;2023-08-21T14:29:47;3.25;;;2.47;;
11827;SDS011;5971;49.646;8.568;2023-08-21T14:32:48;3.50;;;1.55;;
11827;SDS011;5971;49.646;8.568;2023-08-21T14:35:50;2.88;;;2.58;;
11827;SDS011;5971;49.646;8.568;2023-08-21T14:38:51;3.47;;;1.95;;
11827;SDS011;5971;49.646;8.568;2023-08-21T14:41:54;2.75;;;2.00;;
11827;SDS011;5971;49.646;8.568;2023-08-21T14:44:56;3.45;;;2.08;;
11827;SDS011;5971;49.646;8.568;2023-08-21T14:47:57;3.47;;;2.10;;
11827;SDS011;5971;49.646;8.568;2023-08-21T14:50:59;3.33;;;1.85;;
11827;SDS011;5971;49.646;8.568;2023-08-21T14:54:00;3.97;;;2.10;;
11827;SDS011;5971;49.646;8.568;2023-08-21T14:57:02;3.00;;;2.58;;
11827;SDS011;5971;49.646;8.568;2023-08-21T15:00:03;3.08;;;2.50;;
11827;SDS011;5971;49.646;8.568;2023-08-21T15:03:05;2.90;;;2.50;;
11827;SDS011;5971;49.646;8.568;2023-08-21T15:06:06;3.38;;;2.55;;
11827;SDS011;5971;49.646;8.568;2023-08-21T15:09:08;2.92;;;2.50;;
11827;SDS011;5971;49.646;8.568;2023-08-21T15:12:10;4.38;;;2.55;;
11827;SDS011;5971;49.646;8.568;2023-08-21T15:15:11;4.80;;;2.83;;
11827;SDS011;5971;49.646;8.568;2023-08-21T15:18:13;3.65;;;2.40;;
11827;SDS011;5971;49.646;8.568;2023-08-21T15:21:14;2.80;;;2.30;;
11827;SDS011;5971;49.646;8.568;2023-08-21T15:24:15;4.57;;;2.45;;
11827;SDS011;5971;49.646;8.568;2023-08-21T15:27:17;3.63;;;2.22;;
11827;SDS011;5971;49.646;8.568;2023-08-21T15:30:18;3.05;;;1.85;;
11827;SDS011;5971;49.646;8.568;2023-08-21T15:33:20;3.30;;;2.00;;
11827;SDS011;5971;49.646;8.568;2023-08-21T15:36:21;3.05;;;1.88;;
11827;SDS011;5971;49.646;8.568;2023-08-21T15:39:22;4.20;;;1.90;;
11827;SDS011;5971;49.646;8.568;2023-08-21T15:42:24;4.10;;;2.40;;
11827;SDS011;5971;49.646;8.568;2023-08-21T15:45:25;3.58;;;2.17;;
11827;SDS011;5971;49.646;8.568;2023-08-21T15:48:26;3.45;;;1.70;;
11827;SDS011;5971;49.646;8.568;2023-08-21T15:51:28;2.90;;;1.90;;
11827;SDS011;5971;49.646;8.568;2023-08-21T15:54:30;4.20;;;2.15;;
11827;SDS011;5971;49.646;8.568;2023-08-21T15:57:32;2.85;;;1.65;;
11827;SDS011;5971;49.646;8.568;2023-08-21T16:00:35;3.55;;;1.95;;
11827;SDS011;5971;49.646;8.568;2023-08-21T16:03:36;3.72;;;2.00;;
11827;SDS011;5971;49.646;8.568;2023-08-21T16:06:38;3.80;;;1.98;;
11827;SDS011;5971;49.646;8.568;2023-08-21T16:09:39;5.30;;;2.00;;
11827;SDS011;5971;49.646;8.568;2023-08-21T16:12:41;3.13;;;2.15;;
11827;SDS011;5971;49.646;8.568;2023-08-21T16:15:42;3.88;;;2.08;;
11827;SDS011;5971;49.646;8.568;2023-08-21T16:18:44;3.63;;;1.73;;
11827;SDS011;5971;49.646;8.568;2023-08-21T16:21:45;4.13;;;1.70;;
11827;SDS011;5971;49.646;8.568;2023-08-21T16:24:48;2.95;;;1.80;;
11827;SDS011;5971;49.646;8.568;2023-08-21T16:27:49;3.00;;;1.90;;
11827;SDS011;5971;49.646;8.568;2023-08-21T16:30:51;3.15;;;1.75;;
11827;SDS011;5971;49.646;8.568;2023-08-21T16:33:52;2.88;;;1.83;;
11827;SDS011;5971;49.646;8.568;2023-08-21T16:36:53;3.00;;;1.65;;
11827;SDS011;5971;49.646;8.568;2023-08-21T16:39:55;4.20;;;1.77;;
11827;SDS011;5971;49.646;8.568;2023-08-21T16:42:56;3.58;;;1.95;;
11827;SDS011;5971;49.646;8.568;2023-08-21T16:45:57;2.78;;;1.80;;
11827;SDS011;5971;49.646;8.568;2023-08-21T16:48:59;3.28;;;2.00;;
11827;SDS011;5971;49.646;8.568;2023-08-21T16:52:00;3.67;;;2.08;;
11827;SDS011;5971;49.646;8.568;2023-08-21T16:55:02;4.28;;;1.88;;
11827;SDS011;5971;49.646;8.568;2023-08-21T16:58:04;2.78;;;1.90;;
11827;SDS011;5971;49.646;8.568;2023-08-21T17:01:07;3.78;;;2.00;;
11827;SDS011;5971;49.646;8.568;2023-08-21T17:04:08;5.15;;;2.17;;
11827;SDS011;5971;49.646;8.568;2023-08-21T17:07:10;4.07;;;2.47;;
11827;SDS011;5971;49.646;8.568;2023-08-21T17:10:12;4.43;;;2.40;;
11827;SDS011;5971;49.646;8.568;2023-08-21T17:13:15;4.43;;;2.38;;
11827;SDS011;5971;49.646;8.568;2023-08-21T17:16:17;3.83;;;1.90;;
11827;SDS011;5971;49.646;8.568;2023-08-21T17:19:18;3.13;;;1.90;;
11827;SDS011;5971;49.646;8.568;2023-08-21T17:22:20;3.42;;;2.10;;
11827;SDS011;5971;49.646;8.568;2023-08-21T17:25:21;3.40;;;2.40;;
11827;SDS011;5971;49.646;8.568;2023-08-21T17:28:23;3.20;;;2.03;;
11827;SDS011;5971;49.646;8.568;2023-08-21T17:31:24;3.40;;;2.00;;
11827;SDS011;5971;49.646;8.568;2023-08-21T17:34:26;3.03;;;1.95;;
11827;SDS011;5971;49.646;8.568;2023-08-21T17:37:27;3.55;;;1.92;;
11827;SDS011;5971;49.646;8.568;2023-08-21T17:40:28;3.50;;;1.92;;
11827;SDS011;5971;49.646;8.568;2023-08-21T17:43:30;3.85;;;2.03;;
11827;SDS011;5971;49.646;8.568;2023-08-21T17:46:31;3.70;;;2.00;;
11827;SDS011;5971;49.646;8.568;2023-08-21T17:49:32;3.45;;;2.17;;
11827;SDS011;5971;49.646;8.568;2023-08-21T17:52:34;3.75;;;2.20;;
11827;SDS011;5971;49.646;8.568;2023-08-21T17:55:35;4.55;;;2.35;;
11827;SDS011;5971;49.646;8.568;2023-08-21T17:58:37;4.65;;;2.60;;
11827;SDS011;5971;49.646;8.568;2023-08-21T18:01:39;4.95;;;2.22;;
11827;SDS011;5971;49.646;8.568;2023-08-21T18:04:40;4.10;;;2.53;;
11827;SDS011;5971;49.646;8.568;2023-08-21T18:07:42;3.88;;;2.25;;
11827;SDS011;5971;49.646;8.568;2023-08-21T18:10:43;3.47;;;2.00;;
11827;SDS011;5971;49.646;8.568;2023-08-21T18:13:44;4.72;;;2.55;;
11827;SDS011;5971;49.646;8.568;2023-08-21T18:16:47;3.70;;;1.98;;
11827;SDS011;5971;49.646;8.568;2023-08-21T18:19:49;3.88;;;2.10;;
11827;SDS011;5971;49.646;8.568;2023-08-21T18:22:50;3.63;;;2.42;;
11827;SDS011;5971;49.646;8.568;2023-08-21T18:25:53;3.25;;;2.03;;
11827;SDS011;5971;49.646;8.568;2023-08-21T18:28:54;3.88;;;2.13;;
11827;SDS011;5971;49.646;8.568;2023-08-21T18:31:55;3.50;;;2.20;;
11827;SDS011;5971;49.646;8.568;2023-08-21T18:34:57;4.20;;;2.53;;
11827;SDS011;5971;49.646;8.568;2023-08-21T18:37:59;5.05;;;2.40;;
11827;SDS011;5971;49.646;8.568;2023-08-21T18:41:00;6.05;;;2.35;;
11827;SDS011;5971;49.646;8.568;2023-08-21T18:44:02;4.13;;;2.22;;